sensor_id;sensor_type;location;lat;lon;timestamp;pressure;altitude;pressure_sealevel;temperature;humidity
8140;BME280;4111;50.972;7.072;2022-11-23T00:00:56;99308.66;;;9.79;87.95
8140;BME280;4111;50.972;7.072;2022-11-23T00:03:22;99309.44;;;9.85;87.37
8140;BME280;4111;50.972;7.072;2022-11-23T00:05:49;99308.63;;;9.84;87.37
8140;BME280;4111;50.972;7.072;2022-11-23T00:08:15;99310.28;;;9.80;87.61
8140;BME280;4111;50.972;7.072;2022-11-23T00:10:42;99311.66;;;9.78;87.83
8140;BME280;4111;50.972;7.072;2022-11-23T00:13:08;99311.09;;;9.86;87.86
8140;BME280;4111;50.972;7.072;2022-11-23T00:15:35;99316.75;;;9.89;87.44
8140;BME280;4111;50.972;7.072;2022-11-23T00:18:01;99315.41;;;9.87;87.33
8140;BME280;4111;50.972;7.072;2022-11-23T00:20:27;99315.94;;;9.89;87.45
8140;BME280;4111;50.972;7.072;2022-11-23T00:22:54;99320.25;;;9.95;87.44
8140;BME280;4111;50.972;7.072;2022-11-23T00:25:20;99315.94;;;9.94;87.33
8140;BME280;4111;50.972;7.072;2022-11-23T00:27:46;99316.72;;;9.95;87.29
8140;BME280;4111;50.972;7.072;2022-11-23T00:30:13;99320.53;;;9.93;87.34
8140;BME280;4111;50.972;7.072;2022-11-23T00:32:39;99326.78;;;9.94;87.27
8140;BME280;4111;50.972;7.072;2022-11-23T00:35:06;99326.22;;;9.92;87.34
8140;BME280;4111;50.972;7.072;2022-11-23T00:37:33;99324.06;;;9.94;87.34
8140;BME280;4111;50.972;7.072;2022-11-23T00:39:59;99327.31;;;9.96;87.45
8140;BME280;4111;50.972;7.072;2022-11-23T00:42:25;99322.69;;;9.97;87.12
8140;BME280;4111;50.972;7.072;2022-11-23T00:44:52;99329.75;;;9.98;87.58
8140;BME280;4111;50.972;7.072;2022-11-23T00:47:18;99326.78;;;9.89;87.75
8140;BME280;4111;50.972;7.072;2022-11-23T00:49:44;99330.03;;;9.91;87.81
8140;BME280;4111;50.972;7.072;2022-11-23T00:52:11;99332.22;;;9.84;88.09
8140;BME280;4111;50.972;7.072;2022-11-23T00:54:37;99332.19;;;9.89;87.75
8140;BME280;4111;50.972;7.072;2022-11-23T00:57:04;99333.84;;;9.90;88.10
8140;BME280;4111;50.972;7.072;2022-11-23T00:59:30;99340.06;;;9.90;88.07
8140;BME280;4111;50.972;7.072;2022-11-23T01:01:57;99339.78;;;9.87;87.95
8140;BME280;4111;50.972;7.072;2022-11-23T01:04:23;99342.50;;;9.92;87.82
8140;BME280;4111;50.972;7.072;2022-11-23T01:06:54;99342.47;;;9.97;87.91
8140;BME280;4111;50.972;7.072;2022-11-23T01:09:22;99344.94;;;9.88;87.82
8140;BME280;4111;50.972;7.072;2022-11-23T01:11:52;99348.47;;;9.89;87.89
8140;BME280;4111;50.972;7.072;2022-11-23T01:14:19;99342.78;;;9.90;87.76
8140;BME280;4111;50.972;7.072;2022-11-23T01:16:46;99351.72;;;9.91;87.49
8140;BME280;4111;50.972;7.072;2022-11-23T01:19:15;99347.13;;;9.91;87.78
8140;BME280;4111;50.972;7.072;2022-11-23T01:21:43;99349.81;;;9.97;87.65
8140;BME280;4111;50.972;7.072;2022-11-23T01:24:15;99354.41;;;10.01;87.63
8140;BME280;4111;50.972;7.072;2022-11-23T01:26:42;99348.47;;;9.99;87.59
8140;BME280;4111;50.972;7.072;2022-11-23T01:29:12;99352.50;;;9.97;87.55
8140;BME280;4111;50.972;7.072;2022-11-23T01:31:38;99357.66;;;9.98;87.30
8140;BME280;4111;50.972;7.072;2022-11-23T01:34:13;99360.66;;;9.97;87.21
8140;BME280;4111;50.972;7.072;2022-11-23T01:36:40;99360.06;;;10.05;87.49
8140;BME280;4111;50.972;7.072;2022-11-23T01:39:07;99358.72;;;10.02;87.24
8140;BME280;4111;50.972;7.072;2022-11-23T01:41:37;99366.88;;;9.97;87.51
8140;BME280;4111;50.972;7.072;2022-11-23T01:44:30;99365.25;;;10.01;87.71
8140;BME280;4111;50.972;7.072;2022-11-23T01:47:05;99359.31;;;9.94;87.81
8140;BME280;4111;50.972;7.072;2022-11-23T01:49:35;99353.03;;;10.04;87.79
8140;BME280;4111;50.972;7.072;2022-11-23T01:52:06;99358.19;;;9.95;87.81
8140;BME280;4111;50.972;7.072;2022-11-23T01:54:40;99365.78;;;9.98;87.93
8140;BME280;4111;50.972;7.072;2022-11-23T01:57:12;99363.94;;;9.93;88.12
8140;BME280;4111;50.972;7.072;2022-11-23T01:59:42;99360.09;;;9.95;88.05
8140;BME280;4111;50.972;7.072;2022-11-23T02:02:08;99359.84;;;9.96;87.95
8140;BME280;4111;50.972;7.072;2022-11-23T02:04:38;99365.25;;;9.96;88.08
8140;BME280;4111;50.972;7.072;2022-11-23T02:07:05;99368.50;;;10.03;88.30
8140;BME280;4111;50.972;7.072;2022-11-23T02:09:33;99373.66;;;9.95;88.37
8140;BME280;4111;50.972;7.072;2022-11-23T02:12:01;99371.75;;;9.95;88.17
8140;BME280;4111;50.972;7.072;2022-11-23T02:14:27;99371.75;;;10.00;88.16
8140;BME280;4111;50.972;7.072;2022-11-23T02:16:57;99372.28;;;9.97;87.92
8140;BME280;4111;50.972;7.072;2022-11-23T02:22:40;99367.41;;;10.04;87.87
8140;BME280;4111;50.972;7.072;2022-11-23T02:25:21;99368.72;;;10.07;87.98
8140;BME280;4111;50.972;7.072;2022-11-23T02:27:51;99379.06;;;10.05;87.93
8140;BME280;4111;50.972;7.072;2022-11-23T02:30:18;99374.72;;;9.99;87.62
8140;BME280;4111;50.972;7.072;2022-11-23T02:32:45;99369.59;;;9.97;87.76
8140;BME280;4111;50.972;7.072;2022-11-23T02:35:11;99382.28;;;10.07;87.93
8140;BME280;4111;50.972;7.072;2022-11-23T02:37:38;99386.66;;;10.13;87.90
8140;BME280;4111;50.972;7.072;2022-11-23T02:40:16;99386.66;;;10.13;87.74
8140;BME280;4111;50.972;7.072;2022-11-23T02:42:48;99386.66;;;10.13;87.58
8140;BME280;4111;50.972;7.072;2022-11-23T02:47:54;99386.09;;;10.06;87.84
8140;BME280;4111;50.972;7.072;2022-11-23T02:50:20;99383.97;;;9.98;87.83
8140;BME280;4111;50.972;7.072;2022-11-23T02:52:47;99378.56;;;9.98;88.13
8140;BME280;4111;50.972;7.072;2022-11-23T02:55:14;99376.66;;;9.93;88.10
8140;BME280;4111;50.972;7.072;2022-11-23T02:57:40;99384.78;;;9.93;88.47
8140;BME280;4111;50.972;7.072;2022-11-23T03:00:07;99383.97;;;9.98;88.25
8140;BME280;4111;50.972;7.072;2022-11-23T03:02:34;99379.63;;;10.02;88.25
8140;BME280;4111;50.972;7.072;2022-11-23T03:05:00;99383.13;;;9.97;88.32
8140;BME280;4111;50.972;7.072;2022-11-23T03:07:26;99384.25;;;9.96;88.65
8140;BME280;4111;50.972;7.072;2022-11-23T03:09:53;99380.44;;;9.97;88.32
8140;BME280;4111;50.972;7.072;2022-11-23T03:12:19;99378.56;;;9.98;88.47
8140;BME280;4111;50.972;7.072;2022-11-23T03:14:45;99387.50;;;9.98;88.27
8140;BME280;4111;50.972;7.072;2022-11-23T03:17:12;99385.03;;;10.02;88.23
8140;BME280;4111;50.972;7.072;2022-11-23T03:19:38;99384.19;;;10.06;88.03
8140;BME280;4111;50.972;7.072;2022-11-23T03:22:05;99388.56;;;10.02;87.91
8140;BME280;4111;50.972;7.072;2022-11-23T03:24:31;99380.41;;;10.02;87.75
8140;BME280;4111;50.972;7.072;2022-11-23T03:26:58;99380.41;;;10.02;87.64
8140;BME280;4111;50.972;7.072;2022-11-23T03:29:24;99382.88;;;9.99;87.99
8140;BME280;4111;50.972;7.072;2022-11-23T03:31:52;99376.63;;;10.03;87.77
8140;BME280;4111;50.972;7.072;2022-11-23T03:34:19;99379.34;;;9.98;88.14
8140;BME280;4111;50.972;7.072;2022-11-23T03:36:45;99377.72;;;9.97;87.90
8140;BME280;4111;50.972;7.072;2022-11-23T03:39:12;99381.78;;;10.00;87.76
8140;BME280;4111;50.972;7.072;2022-11-23T03:41:38;99387.47;;;10.03;87.94
8140;BME280;4111;50.972;7.072;2022-11-23T03:44:05;99387.47;;;10.03;87.59
8140;BME280;4111;50.972;7.072;2022-11-23T03:46:31;99395.09;;;10.01;87.91
8140;BME280;4111;50.972;7.072;2022-11-23T03:48:57;99385.84;;;10.02;87.43
8140;BME280;4111;50.972;7.072;2022-11-23T03:51:24;99389.63;;;10.06;87.43
8140;BME280;4111;50.972;7.072;2022-11-23T03:53:50;99387.72;;;10.12;87.51
8140;BME280;4111;50.972;7.072;2022-11-23T03:56:16;99388.78;;;10.11;87.40
8140;BME280;4111;50.972;7.072;2022-11-23T03:58:43;99387.47;;;10.03;87.44
8140;BME280;4111;50.972;7.072;2022-11-23T04:01:09;99391.28;;;10.02;87.43
8140;BME280;4111;50.972;7.072;2022-11-23T04:03:36;99392.06;;;10.03;87.56
8140;BME280;4111;50.972;7.072;2022-11-23T04:06:03;99393.97;;;9.97;87.60
8140;BME280;4111;50.972;7.072;2022-11-23T04:08:29;99392.38;;;9.96;87.54
8140;BME280;4111;50.972;7.072;2022-11-23T04:10:56;99387.25;;;9.89;87.88
8140;BME280;4111;50.972;7.072;2022-11-23T04:13:24;99395.09;;;9.91;88.20
8140;BME280;4111;50.972;7.072;2022-11-23T04:15:51;99397.25;;;9.89;87.81
8140;BME280;4111;50.972;7.072;2022-11-23T04:18:17;99392.38;;;9.91;88.25
8140;BME280;4111;50.972;7.072;2022-11-23T04:20:43;99401.34;;;9.86;88.04
8140;BME280;4111;50.972;7.072;2022-11-23T04:23:10;99387.50;;;9.93;88.19
8140;BME280;4111;50.972;7.072;2022-11-23T04:25:39;99382.63;;;9.90;88.02
8140;BME280;4111;50.972;7.072;2022-11-23T04:28:05;99396.72;;;9.92;88.19
8140;BME280;4111;50.972;7.072;2022-11-23T04:30:32;99385.31;;;9.95;88.01
8140;BME280;4111;50.972;7.072;2022-11-23T04:32:58;99393.44;;;9.95;87.79
8140;BME280;4111;50.972;7.072;2022-11-23T04:35:24;99392.38;;;9.91;87.81
8140;BME280;4111;50.972;7.072;2022-11-23T04:37:51;99389.44;;;9.87;87.77
8140;BME280;4111;50.972;7.072;2022-11-23T04:40:17;99395.66;;;9.88;87.94
8140;BME280;4111;50.972;7.072;2022-11-23T04:42:43;99391.31;;;9.92;88.46
8140;BME280;4111;50.972;7.072;2022-11-23T04:45:10;99402.41;;;9.96;87.88
8140;BME280;4111;50.972;7.072;2022-11-23T04:47:37;99393.44;;;9.95;87.68
8140;BME280;4111;50.972;7.072;2022-11-23T04:50:03;99397.53;;;9.98;87.38
8140;BME280;4111;50.972;7.072;2022-11-23T04:52:30;99397.22;;;10.04;87.54
8140;BME280;4111;50.972;7.072;2022-11-23T04:54:56;99401.59;;;9.95;87.34
8140;BME280;4111;50.972;7.072;2022-11-23T04:57:22;99405.94;;;9.91;87.63
8140;BME280;4111;50.972;7.072;2022-11-23T04:59:49;99401.59;;;9.95;87.32
8140;BME280;4111;50.972;7.072;2022-11-23T05:02:15;99407.56;;;9.92;87.43
8140;BME280;4111;50.972;7.072;2022-11-23T05:04:42;99413.53;;;9.94;87.65
8140;BME280;4111;50.972;7.072;2022-11-23T05:07:08;99407.56;;;9.92;87.92
8140;BME280;4111;50.972;7.072;2022-11-23T05:09:34;99410.28;;;9.92;87.83
8140;BME280;4111;50.972;7.072;2022-11-23T05:12:02;99412.72;;;9.93;87.74
8140;BME280;4111;50.972;7.072;2022-11-23T05:14:28;99414.34;;;10.00;87.47
8140;BME280;4111;50.972;7.072;2022-11-23T05:16:55;99412.72;;;9.93;87.40
8140;BME280;4111;50.972;7.072;2022-11-23T05:19:21;99415.13;;;10.00;87.59
8140;BME280;4111;50.972;7.072;2022-11-23T05:21:48;99411.88;;;9.98;87.54
8140;BME280;4111;50.972;7.072;2022-11-23T05:24:14;99411.34;;;9.91;87.70
8140;BME280;4111;50.972;7.072;2022-11-23T05:26:40;99415.16;;;9.90;88.07
8140;BME280;4111;50.972;7.072;2022-11-23T05:29:08;99420.03;;;9.93;88.17
8140;BME280;4111;50.972;7.072;2022-11-23T05:31:34;99418.41;;;9.92;88.24
8140;BME280;4111;50.972;7.072;2022-11-23T05:34:01;99418.69;;;9.96;88.27
8140;BME280;4111;50.972;7.072;2022-11-23T05:36:29;99429.81;;;9.94;88.00
8140;BME280;4111;50.972;7.072;2022-11-23T05:38:56;99431.41;;;9.95;88.17
8140;BME280;4111;50.972;7.072;2022-11-23T05:41:22;99421.41;;;9.90;88.32
8140;BME280;4111;50.972;7.072;2022-11-23T05:43:48;99427.09;;;9.84;88.84
8140;BME280;4111;50.972;7.072;2022-11-23T05:46:15;99425.47;;;9.83;88.94
8140;BME280;4111;50.972;7.072;2022-11-23T05:48:41;99416.56;;;9.72;89.33
8140;BME280;4111;50.972;7.072;2022-11-23T05:51:07;99419.00;;;9.68;89.42
8140;BME280;4111;50.972;7.072;2022-11-23T05:53:34;99434.16;;;9.69;89.55
8140;BME280;4111;50.972;7.072;2022-11-23T05:56:01;99424.69;;;9.72;89.50
8140;BME280;4111;50.972;7.072;2022-11-23T05:58:28;99420.63;;;9.75;89.27
8140;BME280;4111;50.972;7.072;2022-11-23T06:00:58;99428.47;;;9.71;89.14
8140;BME280;4111;50.972;7.072;2022-11-23T06:03:25;99430.66;;;9.74;88.99
8140;BME280;4111;50.972;7.072;2022-11-23T06:05:52;99426.56;;;9.77;88.84
8140;BME280;4111;50.972;7.072;2022-11-23T06:08:18;99435.81;;;9.76;88.53
8140;BME280;4111;50.972;7.072;2022-11-23T06:10:45;99431.47;;;9.80;88.32
8140;BME280;4111;50.972;7.072;2022-11-23T06:13:11;99423.06;;;9.71;88.09
8140;BME280;4111;50.972;7.072;2022-11-23T06:15:37;99426.56;;;9.71;88.11
8140;BME280;4111;50.972;7.072;2022-11-23T06:18:04;99428.75;;;9.75;88.04
8140;BME280;4111;50.972;7.072;2022-11-23T06:20:30;99437.41;;;9.77;87.83
8140;BME280;4111;50.972;7.072;2022-11-23T06:22:57;99427.66;;;9.81;87.81
8140;BME280;4111;50.972;7.072;2022-11-23T06:25:23;99430.38;;;9.76;87.44
8140;BME280;4111;50.972;7.072;2022-11-23T06:27:54;99421.16;;;9.77;87.20
8140;BME280;4111;50.972;7.072;2022-11-23T06:30:21;99426.56;;;9.77;87.09
8140;BME280;4111;50.972;7.072;2022-11-23T06:32:48;99417.63;;;9.76;87.18
8140;BME280;4111;50.972;7.072;2022-11-23T06:35:15;99434.16;;;9.75;87.21
8140;BME280;4111;50.972;7.072;2022-11-23T06:37:41;99430.91;;;9.72;86.95
8140;BME280;4111;50.972;7.072;2022-11-23T06:40:09;99440.13;;;9.71;87.04
8140;BME280;4111;50.972;7.072;2022-11-23T06:42:35;99428.19;;;9.72;86.90
8140;BME280;4111;50.972;7.072;2022-11-23T06:45:06;99431.44;;;9.75;86.52
8140;BME280;4111;50.972;7.072;2022-11-23T06:47:32;99427.13;;;9.73;86.72
8140;BME280;4111;50.972;7.072;2022-11-23T06:50:01;99437.97;;;9.63;86.76
8140;BME280;4111;50.972;7.072;2022-11-23T06:52:28;99435.25;;;9.68;86.86
8140;BME280;4111;50.972;7.072;2022-11-23T06:54:54;99436.34;;;9.62;86.59
8140;BME280;4111;50.972;7.072;2022-11-23T06:57:25;99433.91;;;9.61;86.58
8140;BME280;4111;50.972;7.072;2022-11-23T06:59:56;99437.97;;;9.63;86.50
8140;BME280;4111;50.972;7.072;2022-11-23T07:02:22;99442.84;;;9.66;86.74
8140;BME280;4111;50.972;7.072;2022-11-23T07:04:50;99452.59;;;9.67;86.46
8140;BME280;4111;50.972;7.072;2022-11-23T07:07:17;99460.19;;;9.70;86.27
8140;BME280;4111;50.972;7.072;2022-11-23T07:09:43;99465.06;;;9.73;86.35
8140;BME280;4111;50.972;7.072;2022-11-23T07:12:10;99458.03;;;9.78;86.34
8140;BME280;4111;50.972;7.072;2022-11-23T07:14:36;99458.81;;;9.93;87.00
8140;BME280;4111;50.972;7.072;2022-11-23T07:17:03;99459.06;;;9.97;86.64
8140;BME280;4111;50.972;7.072;2022-11-23T07:19:29;99459.06;;;9.97;86.14
8140;BME280;4111;50.972;7.072;2022-11-23T07:21:56;99458.53;;;10.00;86.11
8140;BME280;4111;50.972;7.072;2022-11-23T07:24:22;99460.13;;;10.06;86.19
8140;BME280;4111;50.972;7.072;2022-11-23T07:26:49;99465.28;;;10.03;85.38
8140;BME280;4111;50.972;7.072;2022-11-23T07:29:16;99470.44;;;10.04;85.42
8140;BME280;4111;50.972;7.072;2022-11-23T07:31:42;99473.19;;;9.99;84.69
8140;BME280;4111;50.972;7.072;2022-11-23T07:34:09;99481.84;;;9.96;84.39
8140;BME280;4111;50.972;7.072;2022-11-23T07:36:36;99486.72;;;9.94;84.42
8140;BME280;4111;50.972;7.072;2022-11-23T07:39:02;99482.94;;;9.85;84.32
8140;BME280;4111;50.972;7.072;2022-11-23T07:41:29;99481.31;;;9.79;84.31
8140;BME280;4111;50.972;7.072;2022-11-23T07:43:55;99487.84;;;9.78;85.14
8140;BME280;4111;50.972;7.072;2022-11-23T07:46:23;99489.47;;;9.73;84.55
8140;BME280;4111;50.972;7.072;2022-11-23T07:48:49;99492.72;;;9.76;84.64
8140;BME280;4111;50.972;7.072;2022-11-23T07:51:18;99503.03;;;9.73;85.00
8140;BME280;4111;50.972;7.072;2022-11-23T07:53:45;99504.63;;;9.85;84.98
8140;BME280;4111;50.972;7.072;2022-11-23T07:56:13;99499.75;;;9.82;84.58
8140;BME280;4111;50.972;7.072;2022-11-23T07:58:39;99506.53;;;9.79;84.53
8140;BME280;4111;50.972;7.072;2022-11-23T08:01:06;99506.28;;;9.76;85.22
8140;BME280;4111;50.972;7.072;2022-11-23T08:03:32;99508.69;;;9.77;85.38
8140;BME280;4111;50.972;7.072;2022-11-23T08:05:59;99501.38;;;9.72;85.32
8140;BME280;4111;50.972;7.072;2022-11-23T08:08:25;99510.59;;;9.71;85.24
8140;BME280;4111;50.972;7.072;2022-11-23T08:10:52;99514.94;;;9.67;85.37
8140;BME280;4111;50.972;7.072;2022-11-23T08:13:20;99511.94;;;9.59;85.56
8140;BME280;4111;50.972;7.072;2022-11-23T08:15:47;99518.72;;;9.56;85.66
8140;BME280;4111;50.972;7.072;2022-11-23T08:18:21;99516.28;;;9.55;85.55
8140;BME280;4111;50.972;7.072;2022-11-23T08:21:11;99513.84;;;9.58;85.75
8140;BME280;4111;50.972;7.072;2022-11-23T08:23:38;99516.56;;;9.58;85.74
8140;BME280;4111;50.972;7.072;2022-11-23T08:26:04;99507.63;;;9.68;85.64
8140;BME280;4111;50.972;7.072;2022-11-23T08:28:38;99507.06;;;9.71;85.39
8140;BME280;4111;50.972;7.072;2022-11-23T08:31:07;99502.19;;;9.83;85.56
8140;BME280;4111;50.972;7.072;2022-11-23T08:33:34;99510.59;;;9.82;85.19
8140;BME280;4111;50.972;7.072;2022-11-23T08:36:04;99503.00;;;9.84;85.00
8140;BME280;4111;50.972;7.072;2022-11-23T08:38:32;99510.59;;;9.92;84.96
8140;BME280;4111;50.972;7.072;2022-11-23T08:41:00;99513.28;;;9.97;84.72
8140;BME280;4111;50.972;7.072;2022-11-23T08:43:27;99511.94;;;9.95;84.54
8140;BME280;4111;50.972;7.072;2022-11-23T08:45:55;99514.66;;;9.95;84.41
8140;BME280;4111;50.972;7.072;2022-11-23T08:48:30;99514.41;;;10.01;84.31
8140;BME280;4111;50.972;7.072;2022-11-23T08:50:59;99520.34;;;10.08;84.09
8140;BME280;4111;50.972;7.072;2022-11-23T08:53:28;99515.44;;;10.10;83.69
8140;BME280;4111;50.972;7.072;2022-11-23T08:55:54;99511.63;;;10.17;83.39
8140;BME280;4111;50.972;7.072;2022-11-23T08:58:20;99509.75;;;10.17;82.90
8140;BME280;4111;50.972;7.072;2022-11-23T09:00:47;99520.03;;;10.20;82.90
8140;BME280;4111;50.972;7.072;2022-11-23T09:03:13;99514.91;;;10.29;82.83
8140;BME280;4111;50.972;7.072;2022-11-23T09:05:40;99517.06;;;10.37;82.25
8140;BME280;4111;50.972;7.072;2022-11-23T09:08:06;99517.03;;;10.42;81.45
8140;BME280;4111;50.972;7.072;2022-11-23T09:10:34;99515.94;;;10.54;81.12
8140;BME280;4111;50.972;7.072;2022-11-23T09:13:01;99513.22;;;10.48;80.67
8140;BME280;4111;50.972;7.072;2022-11-23T09:15:27;99514.84;;;10.49;79.44
8140;BME280;4111;50.972;7.072;2022-11-23T09:17:54;99526.25;;;10.57;79.23
8140;BME280;4111;50.972;7.072;2022-11-23T09:20:21;99527.31;;;10.56;78.90
8140;BME280;4111;50.972;7.072;2022-11-23T09:22:51;99523.00;;;10.49;78.88
8140;BME280;4111;50.972;7.072;2022-11-23T09:25:19;99527.34;;;10.45;78.70
8140;BME280;4111;50.972;7.072;2022-11-23T09:27:47;99525.19;;;10.42;78.66
8140;BME280;4111;50.972;7.072;2022-11-23T09:30:15;99532.22;;;10.48;79.03
8140;BME280;4111;50.972;7.072;2022-11-23T09:32:42;99534.41;;;10.46;78.99
8140;BME280;4111;50.972;7.072;2022-11-23T09:35:08;99529.53;;;10.38;78.79
8140;BME280;4111;50.972;7.072;2022-11-23T09:37:35;99527.94;;;10.32;78.85
8140;BME280;4111;50.972;7.072;2022-11-23T09:40:02;99529.00;;;10.36;78.27
8140;BME280;4111;50.972;7.072;2022-11-23T09:45:26;99549.63;;;10.37;77.54
8140;BME280;4111;50.972;7.072;2022-11-23T09:48:24;99542.56;;;10.36;77.33
8140;BME280;4111;50.972;7.072;2022-11-23T09:50:55;99546.91;;;10.27;77.05
8140;BME280;4111;50.972;7.072;2022-11-23T09:53:28;99542.03;;;10.29;77.33
8140;BME280;4111;50.972;7.072;2022-11-23T09:55:56;99546.91;;;10.32;77.36
8140;BME280;4111;50.972;7.072;2022-11-23T09:58:29;99538.50;;;10.34;77.62
8140;BME280;4111;50.972;7.072;2022-11-23T10:01:10;99540.13;;;10.29;77.44
8140;BME280;4111;50.972;7.072;2022-11-23T10:03:40;99555.06;;;10.27;77.28
8140;BME280;4111;50.972;7.072;2022-11-23T10:06:29;99536.06;;;10.27;77.37
8140;BME280;4111;50.972;7.072;2022-11-23T10:09:04;99544.75;;;10.34;77.31
8140;BME280;4111;50.972;7.072;2022-11-23T10:15:02;99542.28;;;10.38;76.98
8140;BME280;4111;50.972;7.072;2022-11-23T10:17:47;99530.38;;;10.39;76.48
8140;BME280;4111;50.972;7.072;2022-11-23T10:20:51;99530.34;;;10.44;76.64
8140;BME280;4111;50.972;7.072;2022-11-23T10:24:12;99518.66;;;10.48;76.57
8140;BME280;4111;50.972;7.072;2022-11-23T10:26:25;99537.94;;;10.47;76.09
8140;BME280;4111;50.972;7.072;2022-11-23T10:28:53;99536.31;;;10.46;75.53
8140;BME280;4111;50.972;7.072;2022-11-23T10:31:22;99532.78;;;10.50;75.95
8140;BME280;4111;50.972;7.072;2022-11-23T10:34:10;99528.66;;;10.58;75.61
8140;BME280;4111;50.972;7.072;2022-11-23T10:36:38;99530.03;;;10.61;75.61
8140;BME280;4111;50.972;7.072;2022-11-23T10:41:39;99520.78;;;10.62;75.75
8140;BME280;4111;50.972;7.072;2022-11-23T10:44:22;99509.88;;;10.72;75.93
8140;BME280;4111;50.972;7.072;2022-11-23T10:46:51;99505.00;;;10.74;75.72
8140;BME280;4111;50.972;7.072;2022-11-23T10:49:31;99505.00;;;10.74;75.54
8140;BME280;4111;50.972;7.072;2022-11-23T10:52:27;99504.22;;;10.68;75.36
8140;BME280;4111;50.972;7.072;2022-11-23T10:54:56;99499.56;;;10.74;75.21
8140;BME280;4111;50.972;7.072;2022-11-23T11:00:04;99489.00;;;10.73;74.21
8140;BME280;4111;50.972;7.072;2022-11-23T11:02:43;99474.00;;;10.85;73.94
8140;BME280;4111;50.972;7.072;2022-11-23T11:05:32;99462.47;;;11.09;73.98
8140;BME280;4111;50.972;7.072;2022-11-23T11:08:20;99459.72;;;11.14;72.92
8140;BME280;4111;50.972;7.072;2022-11-23T11:10:57;99446.66;;;11.16;72.52
8140;BME280;4111;50.972;7.072;2022-11-23T11:16:09;99437.38;;;11.22;71.14
8140;BME280;4111;50.972;7.072;2022-11-23T11:18:41;99438.72;;;11.25;70.93
8140;BME280;4111;50.972;7.072;2022-11-23T11:21:32;99427.47;;;11.42;70.85
8140;BME280;4111;50.972;7.072;2022-11-23T11:24:03;99433.69;;;11.42;70.23
8140;BME280;4111;50.972;7.072;2022-11-23T11:26:32;99437.31;;;11.32;70.53
8140;BME280;4111;50.972;7.072;2022-11-23T11:29:01;99420.84;;;11.14;70.72
8140;BME280;4111;50.972;7.072;2022-11-23T11:36:49;99429.53;;;11.16;71.72
8140;BME280;4111;50.972;7.072;2022-11-23T11:39:23;99425.00;;;11.06;71.53
8140;BME280;4111;50.972;7.072;2022-11-23T11:41:55;99423.13;;;11.01;71.53
8140;BME280;4111;50.972;7.072;2022-11-23T11:44:24;99424.50;;;10.99;71.49
8140;BME280;4111;50.972;7.072;2022-11-23T11:49:45;99411.72;;;11.04;71.31
8140;BME280;4111;50.972;7.072;2022-11-23T11:52:20;99424.19;;;11.05;71.31
8140;BME280;4111;50.972;7.072;2022-11-23T11:55:20;99414.38;;;11.09;71.04
8140;BME280;4111;50.972;7.072;2022-11-23T11:57:53;99419.97;;;11.23;71.15
8140;BME280;4111;50.972;7.072;2022-11-23T12:00:20;99410.25;;;11.17;70.73
8140;BME280;4111;50.972;7.072;2022-11-23T12:03:04;99419.25;;;11.13;70.91
8140;BME280;4111;50.972;7.072;2022-11-23T12:05:48;99427.56;;;11.26;71.03
8140;BME280;4111;50.972;7.072;2022-11-23T12:08:57;99423.22;;;11.25;70.93
8140;BME280;4111;50.972;7.072;2022-11-23T12:11:19;99422.69;;;11.23;70.94
8140;BME280;4111;50.972;7.072;2022-11-23T12:13:46;99423.88;;;11.12;70.27
8140;BME280;4111;50.972;7.072;2022-11-23T12:16:27;99424.75;;;11.02;70.16
8140;BME280;4111;50.972;7.072;2022-11-23T12:27:25;99409.81;;;11.00;70.52
8140;BME280;4111;50.972;7.072;2022-11-23T12:30:10;99417.38;;;11.08;70.74
8140;BME280;4111;50.972;7.072;2022-11-23T12:33:10;99406.19;;;11.15;70.29
8140;BME280;4111;50.972;7.072;2022-11-23T12:41:22;99408.56;;;11.26;69.74
8140;BME280;4111;50.972;7.072;2022-11-23T12:44:02;99408.06;;;11.19;70.03
8140;BME280;4111;50.972;7.072;2022-11-23T12:49:35;99388.19;;;11.24;69.88
8140;BME280;4111;50.972;7.072;2022-11-23T12:55:17;99391.19;;;11.22;69.95
8140;BME280;4111;50.972;7.072;2022-11-23T12:58:01;99385.19;;;11.25;69.88
8140;BME280;4111;50.972;7.072;2022-11-23T13:00:38;99380.09;;;11.19;69.71
8140;BME280;4111;50.972;7.072;2022-11-23T13:09:17;99363.53;;;11.15;70.11
8140;BME280;4111;50.972;7.072;2022-11-23T13:17:54;99347.28;;;11.10;70.28
8140;BME280;4111;50.972;7.072;2022-11-23T13:20:37;99353.00;;;11.08;70.50
8140;BME280;4111;50.972;7.072;2022-11-23T13:23:10;99335.81;;;11.18;70.41
8140;BME280;4111;50.972;7.072;2022-11-23T13:25:36;99333.03;;;11.23;70.41
8140;BME280;4111;50.972;7.072;2022-11-23T13:28:04;99331.75;;;11.16;70.36
8140;BME280;4111;50.972;7.072;2022-11-23T13:34:02;99334.56;;;11.35;70.13
8140;BME280;4111;50.972;7.072;2022-11-23T13:36:34;99344.94;;;11.27;69.84
8140;BME280;4111;50.972;7.072;2022-11-23T13:42:09;99340.00;;;11.35;69.66
8140;BME280;4111;50.972;7.072;2022-11-23T13:44:36;99345.72;;;11.33;69.72
8140;BME280;4111;50.972;7.072;2022-11-23T13:55:04;99327.16;;;11.45;68.31
8140;BME280;4111;50.972;7.072;2022-11-23T13:57:40;99324.44;;;11.69;68.26
8140;BME280;4111;50.972;7.072;2022-11-23T14:00:45;99309.41;;;12.01;67.77
8140;BME280;4111;50.972;7.072;2022-11-23T14:06:47;99314.16;;;12.15;67.15
8140;BME280;4111;50.972;7.072;2022-11-23T14:09:22;99312.63;;;12.46;66.55
8140;BME280;4111;50.972;7.072;2022-11-23T14:11:56;99303.19;;;12.20;66.72
8140;BME280;4111;50.972;7.072;2022-11-23T14:14:30;99305.81;;;12.06;66.37
8140;BME280;4111;50.972;7.072;2022-11-23T14:17:11;99308.38;;;11.97;66.52
8140;BME280;4111;50.972;7.072;2022-11-23T14:23:02;99315.28;;;11.60;67.17
8140;BME280;4111;50.972;7.072;2022-11-23T14:34:07;99312.66;;;11.26;68.32
8140;BME280;4111;50.972;7.072;2022-11-23T14:36:56;99325.50;;;11.15;68.89
8140;BME280;4111;50.972;7.072;2022-11-23T14:39:53;99327.69;;;11.13;69.41
8140;BME280;4111;50.972;7.072;2022-11-23T14:42:26;99317.69;;;11.08;69.17
8140;BME280;4111;50.972;7.072;2022-11-23T14:44:55;99324.78;;;11.04;70.02
8140;BME280;4111;50.972;7.072;2022-11-23T14:47:27;99314.22;;;11.03;69.63
8140;BME280;4111;50.972;7.072;2022-11-23T14:49:55;99322.91;;;11.00;69.86
8140;BME280;4111;50.972;7.072;2022-11-23T14:52:27;99328.44;;;10.89;69.99
8140;BME280;4111;50.972;7.072;2022-11-23T14:54:57;99330.88;;;10.91;70.02
8140;BME280;4111;50.972;7.072;2022-11-23T14:57:36;99333.38;;;10.82;70.11
8140;BME280;4111;50.972;7.072;2022-11-23T15:00:05;99336.69;;;10.74;70.49
8140;BME280;4111;50.972;7.072;2022-11-23T15:02:39;99350.31;;;10.69;70.36
8140;BME280;4111;50.972;7.072;2022-11-23T15:05:07;99349.50;;;10.68;70.58
8140;BME280;4111;50.972;7.072;2022-11-23T15:08:17;99353.53;;;10.71;70.58
8140;BME280;4111;50.972;7.072;2022-11-23T15:10:51;99359.00;;;10.66;70.88
8140;BME280;4111;50.972;7.072;2022-11-23T15:13:31;99361.41;;;10.73;70.83